Terminal Aerodrome Forecast
Issued by NWS

Home | Current Version | Previous Version | Text Only | Print | Product List | Glossary On
Versions: 1 2 3 4 5 6 7 8 9 10 11 12 13 14 15 16 17 18 19 20 21 22 23 24
917
FTUS44 KTSA 021126
TAFFYV
TAF
KFYV 021126Z 0212/0312 32007KT P6SM SCT008 BKN020
      TEMPO 0212/0215 BKN008
     FM021500 31008KT P6SM BKN020
     FM021800 31008KT P6SM BKN035
     FM030100 00000KT P6SM SCT040=

USA.gov is the U.S. government's official web portal to all federal, state and local government web resources and services.